Time;durP1;ratioP1;P1;durP2;ratioP2;P2;SDS_P1;SDS_P2;PMS_P1;PMS_P2;Temp;Humidity;BMP_temperature;BMP_pressure;BME280_temperature;BME280_humidity;BME280_pressure;Samples;Min_cycle;Max_cycle;Signal;HPM_P1;HPM_P2
2022/07/19 00:01:14;;;;;;;3.17;2.00;;;;;;;21.30;48.67;95275.50;4163130;28;20075;-53
2022/07/19 00:03:17;;;;;;;4.15;2.13;;;;;;;21.26;48.61;95267.91;4174427;28;20436;-55
2022/07/19 00:05:19;;;;;;;4.07;2.20;;;;;;;21.32;48.77;95268.91;4177551;28;20041;-54
2022/07/19 00:07:21;;;;;;;5.65;2.08;;;;;;;21.30;48.93;95275.50;4177559;28;20552;-54
2022/07/19 00:09:24;;;;;;;7.57;4.65;;;;;;;21.28;49.10;95281.84;4177129;28;20109;-53
2022/07/19 00:11:26;;;;;;;4.78;2.85;;;;;;;21.18;49.25;95276.13;4163365;28;20041;-55
2022/07/19 00:13:27;;;;;;;3.88;1.88;;;;;;;21.10;49.72;95278.22;4177234;28;20153;-55
2022/07/19 00:15:29;;;;;;;6.80;2.20;;;;;;;21.12;49.89;95276.97;4173749;28;20088;-54
2022/07/19 00:17:31;;;;;;;3.90;1.90;;;;;;;21.15;49.80;95267.75;4166178;28;20049;-52
2022/07/19 00:19:33;;;;;;;4.38;2.15;;;;;;;21.10;49.91;95273.72;4167959;28;20119;-55
2022/07/19 00:21:35;;;;;;;3.67;2.60;;;;;;;20.96;50.03;95277.44;4172858;28;20118;-54
2022/07/19 00:23:36;;;;;;;5.05;2.33;;;;;;;20.94;49.90;95274.19;4173098;28;20140;-53
2022/07/19 00:25:38;;;;;;;4.00;2.28;;;;;;;20.94;49.95;95276.84;4161522;28;20049;-53
2022/07/19 00:27:41;;;;;;;5.55;2.65;;;;;;;20.95;49.80;95276.66;4167832;28;20226;-51
2022/07/19 00:29:43;;;;;;;3.63;2.25;;;;;;;20.81;50.25;95275.84;4176027;28;20049;-55
2022/07/19 00:31:44;;;;;;;3.90;2.78;;;;;;;20.79;50.45;95269.91;4163064;28;20053;-54
2022/07/19 00:33:46;;;;;;;5.35;2.25;;;;;;;20.62;50.77;95268.72;4160121;28;20119;-56
2022/07/19 00:35:48;;;;;;;5.07;2.60;;;;;;;20.54;51.08;95269.75;4177517;28;20394;-55
2022/07/19 00:37:50;;;;;;;4.70;2.50;;;;;;;20.49;51.18;95276.69;4176822;28;20049;-57
2022/07/19 00:39:51;;;;;;;4.40;2.40;;;;;;;20.51;51.22;95267.47;4177911;28;20049;-54
2022/07/19 00:41:53;;;;;;;5.10;2.30;;;;;;;20.47;51.59;95268.91;4177333;28;20136;-55
2022/07/19 00:43:56;;;;;;;3.88;2.42;;;;;;;20.54;51.38;95271.56;4161652;28;20111;-51
2022/07/19 00:45:58;;;;;;;5.65;2.40;;;;;;;20.60;51.34;95273.44;4169293;28;20053;-55
2022/07/19 00:48:00;;;;;;;5.25;3.20;;;;;;;20.62;51.19;95272.19;4174796;28;20516;-54
2022/07/19 00:50:03;;;;;;;3.78;2.45;;;;;;;20.56;51.44;95272.16;4176765;28;20049;-53
2022/07/19 00:52:05;;;;;;;3.42;2.50;;;;;;;20.48;51.93;95275.03;4171213;28;20049;-53
2022/07/19 00:54:09;;;;;;;6.70;2.33;;;;;;;20.46;51.79;95273.41;4163087;28;20566;-53
2022/07/19 00:56:15;;;;;;;4.90;2.88;;;;;;;20.50;51.71;95270.34;4174605;28;20490;-52
2022/07/19 00:58:17;;;;;;;3.35;2.30;;;;;;;20.46;51.88;95269.94;4169337;28;20053;-53
2022/07/19 01:00:19;;;;;;;8.93;2.58;;;;;;;20.40;52.00;95276.91;4170371;28;20049;-55
2022/07/19 01:02:21;;;;;;;4.63;2.60;;;;;;;20.34;52.33;95276.91;4164005;28;20046;-54
2022/07/19 01:04:23;;;;;;;4.97;2.60;;;;;;;20.25;52.51;95266.47;4170220;28;20083;-53
2022/07/19 01:06:25;;;;;;;5.75;2.40;;;;;;;20.19;52.85;95266.47;4164491;28;20508;-53
2022/07/19 01:08:27;;;;;;;4.88;2.47;;;;;;;20.12;52.93;95265.66;4170152;28;20059;-55
2022/07/19 01:10:29;;;;;;;8.88;2.80;;;;;;;20.13;52.87;95264.63;4164466;28;20214;-54
2022/07/19 01:12:32;;;;;;;4.68;2.55;;;;;;;20.21;52.85;95264.44;4160278;28;20430;-56
2022/07/19 01:14:35;;;;;;;7.43;2.58;;;;;;;20.23;52.65;95263.19;4160861;28;20560;-54
2022/07/19 01:16:43;;;;;;;11.80;6.45;;;;;;;20.23;52.74;95265.03;4177237;28;20117;-56
2022/07/19 01:18:45;;;;;;;7.20;2.75;;;;;;;20.24;52.88;95262.19;4159042;28;20050;-56
2022/07/19 01:20:46;;;;;;;6.13;2.15;;;;;;;20.19;52.95;95263.81;4169753;28;20564;-54
2022/07/19 01:22:48;;;;;;;6.80;2.50;;;;;;;20.16;53.13;95258.91;4165759;28;20447;-53
2022/07/19 01:24:50;;;;;;;4.88;2.50;;;;;;;20.16;53.13;95267.72;4163726;28;20127;-54
2022/07/19 01:26:51;;;;;;;5.40;2.22;;;;;;;20.22;52.92;95268.75;4159998;28;20124;-55
2022/07/19 01:28:53;;;;;;;3.25;2.20;;;;;;;20.21;52.97;95261.78;4165445;28;20052;-55
2022/07/19 01:30:55;;;;;;;5.25;2.30;;;;;;;20.19;53.06;95259.31;4174570;28;20103;-57
2022/07/19 01:32:57;;;;;;;5.53;2.00;;;;;;;20.08;53.22;95259.94;4162380;28;20053;-56
2022/07/19 01:34:58;;;;;;;2.90;2.17;;;;;;;20.04;53.59;95261.34;4160351;28;20082;-55
2022/07/19 01:37:00;;;;;;;4.53;2.28;;;;;;;20.11;53.37;95259.53;4162810;28;20054;-53
2022/07/19 01:39:02;;;;;;;3.78;2.17;;;;;;;20.10;53.49;95254.41;4159464;28;20064;-55
2022/07/19 01:41:05;;;;;;;5.72;2.35;;;;;;;20.10;53.43;95255.22;4170502;28;20587;-55
2022/07/19 01:43:07;;;;;;;3.60;2.10;;;;;;;20.07;53.60;95257.47;4168639;28;20053;-55
2022/07/19 01:45:09;;;;;;;4.70;2.00;;;;;;;20.03;53.67;95251.75;4169759;28;20083;-55
2022/07/19 01:47:11;;;;;;;4.65;2.03;;;;;;;20.00;53.66;95249.50;4176450;28;20075;-57
2022/07/19 01:49:13;;;;;;;3.45;2.22;;;;;;;20.02;53.73;95244.78;4160015;28;20115;-54
2022/07/19 01:51:14;;;;;;;3.03;2.00;;;;;;;20.01;53.79;95253.78;4172389;28;20041;-53
2022/07/19 01:53:16;;;;;;;4.03;2.08;;;;;;;19.99;53.73;95251.34;4160082;28;20578;-55
2022/07/19 01:55:19;;;;;;;5.15;2.00;;;;;;;20.05;53.68;95245.19;4168015;28;20056;-56
2022/07/19 01:57:20;;;;;;;3.88;1.90;;;;;;;20.00;53.80;95247.66;4171943;28;20160;-55
2022/07/19 01:59:22;;;;;;;7.45;2.00;;;;;;;20.07;53.67;95246.81;4158435;28;20061;-56
2022/07/19 02:01:24;;;;;;;4.60;1.73;;;;;;;19.97;53.89;95242.75;4162364;28;20045;-54
2022/07/19 02:03:26;;;;;;;5.13;2.30;;;;;;;20.02;53.86;95247.44;4169100;28;20299;-55
2022/07/19 02:05:27;;;;;;;4.80;2.10;;;;;;;20.03;53.85;95246.44;4158915;28;20061;-51
2022/07/19 02:07:30;;;;;;;3.88;2.17;;;;;;;19.99;53.79;95248.69;4169871;28;20048;-54
2022/07/19 02:09:32;;;;;;;6.00;2.45;;;;;;;20.00;53.76;95253.00;4174514;28;20068;-55
2022/07/19 02:11:36;;;;;;;4.30;2.10;;;;;;;20.04;53.93;95256.84;4172895;28;20098;-55
2022/07/19 02:13:38;;;;;;;3.50;1.80;;;;;;;20.09;53.68;95258.91;4158661;28;20468;-55
2022/07/19 02:15:39;;;;;;;8.32;2.25;;;;;;;20.10;53.63;95257.06;4162683;28;20053;-54
2022/07/19 02:17:41;;;;;;;5.10;2.10;;;;;;;20.03;53.82;95255.22;4159555;28;20057;-55
2022/07/19 02:19:43;;;;;;;5.88;2.30;;;;;;;20.00;53.96;95254.81;4172963;28;20516;-54
2022/07/19 02:21:45;;;;;;;6.68;2.25;;;;;;;20.01;53.80;95251.94;4159784;28;20049;-55
2022/07/19 02:23:46;;;;;;;3.67;2.33;;;;;;;19.96;54.10;95259.72;4161336;28;20262;-51
2022/07/19 02:25:48;;;;;;;3.72;1.98;;;;;;;19.94;54.00;95251.13;4170728;28;20103;-54
2022/07/19 02:27:50;;;;;;;5.30;2.15;;;;;;;19.91;54.15;95248.88;4166021;28;20475;-54
2022/07/19 02:29:52;;;;;;;3.35;1.90;;;;;;;19.91;54.27;95256.84;4175876;28;20130;-54
2022/07/19 02:31:53;;;;;;;2.67;1.80;;;;;;;19.88;54.37;95262.59;4162337;28;20057;-54
2022/07/19 02:33:55;;;;;;;5.00;2.30;;;;;;;19.89;54.34;95261.53;4158031;28;20371;-54
2022/07/19 02:35:57;;;;;;;5.30;2.20;;;;;;;19.92;54.19;95260.31;4166617;28;20439;-53
2022/07/19 02:37:59;;;;;;;4.55;2.55;;;;;;;19.87;54.18;95266.25;4175213;28;20060;-52
2022/07/19 02:40:01;;;;;;;4.95;1.88;;;;;;;19.88;54.36;95267.91;4162753;28;20107;-52
2022/07/19 02:42:02;;;;;;;4.75;2.05;;;;;;;19.87;54.06;95268.91;4162166;28;20065;-53
2022/07/19 02:44:04;;;;;;;3.40;1.85;;;;;;;19.79;54.39;95272.59;4172665;28;20053;-56
2022/07/19 02:46:06;;;;;;;4.32;2.15;;;;;;;19.80;54.28;95276.88;4171597;28;20042;-54
2022/07/19 02:48:09;;;;;;;4.18;2.08;;;;;;;19.88;54.09;95272.41;4161065;28;20109;-53
2022/07/19 02:50:10;;;;;;;4.22;2.10;;;;;;;19.92;53.88;95269.13;4161258;28;20071;-55
2022/07/19 02:52:12;;;;;;;3.35;2.00;;;;;;;19.88;53.79;95277.72;4161296;28;20468;-55
2022/07/19 02:54:14;;;;;;;2.78;2.10;;;;;;;19.73;54.24;95278.72;4158159;28;20054;-54
2022/07/19 02:56:16;;;;;;;3.63;2.38;;;;;;;19.69;54.55;95281.94;4159466;28;20118;-54
2022/07/19 02:58:18;;;;;;;9.13;2.17;;;;;;;19.67;54.54;95286.66;4160726;28;20049;-55
2022/07/19 03:00:20;;;;;;;6.47;2.60;;;;;;;19.58;54.63;95280.69;4167738;28;20044;-54
2022/07/19 03:02:22;;;;;;;3.70;1.90;;;;;;;19.54;54.82;95292.75;4163141;28;20091;-53
2022/07/19 03:04:23;;;;;;;3.58;2.15;;;;;;;19.59;54.74;95287.63;4172064;28;20052;-52
2022/07/19 03:06:25;;;;;;;4.45;2.22;;;;;;;19.68;54.67;95288.28;4172639;28;20045;-55
2022/07/19 03:08:27;;;;;;;3.40;1.90;;;;;;;19.67;54.37;95291.97;4158744;28;20045;-53
2022/07/19 03:10:29;;;;;;;5.55;2.30;;;;;;;19.73;54.40;95288.53;4158437;28;20272;-55
2022/07/19 03:12:30;;;;;;;5.95;2.13;;;;;;;19.70;54.49;95283.59;4158934;28;20200;-54
2022/07/19 03:14:32;;;;;;;4.68;1.95;;;;;;;19.76;54.25;95286.28;4174478;28;20421;-54
2022/07/19 03:16:34;;;;;;;5.18;1.73;;;;;;;19.86;53.92;95291.22;4172166;28;20469;-54
2022/07/19 03:18:36;;;;;;;4.43;1.98;;;;;;;19.96;53.63;95285.47;4172788;28;20059;-54
2022/07/19 03:20:37;;;;;;;4.03;2.03;;;;;;;20.08;53.33;95293.69;4175320;28;20708;-53
2022/07/19 03:22:39;;;;;;;4.43;2.00;;;;;;;20.14;53.27;95293.69;4168656;28;20057;-57
2022/07/19 03:24:41;;;;;;;7.07;2.45;;;;;;;20.17;53.43;95297.78;4167614;28;20463;-54
2022/07/19 03:26:43;;;;;;;6.35;2.35;;;;;;;20.20;53.11;95300.06;4163422;28;20119;-53
2022/07/19 03:28:44;;;;;;;4.22;2.30;;;;;;;20.23;53.04;95297.78;4156884;28;20046;-53
2022/07/19 03:30:46;;;;;;;7.38;2.88;;;;;;;20.20;53.21;95298.19;4162794;28;20044;-54
2022/07/19 03:32:48;;;;;;;3.80;2.50;;;;;;;20.17;53.44;95301.25;4173312;28;20091;-54
2022/07/19 03:34:49;;;;;;;6.75;2.40;;;;;;;20.19;53.13;95301.06;4168594;28;20061;-52
2022/07/19 03:36:51;;;;;;;4.22;2.03;;;;;;;20.27;53.00;95305.38;4173134;28;20167;-55
2022/07/19 03:38:53;;;;;;;4.93;2.10;;;;;;;20.35;52.85;95305.97;4165001;28;20369;-53
2022/07/19 03:40:55;;;;;;;2.72;1.70;;;;;;;20.42;52.69;95306.78;4166966;28;20045;-52
2022/07/19 03:42:56;;;;;;;9.63;2.10;;;;;;;20.48;52.39;95309.63;4169815;28;20053;-53
2022/07/19 03:44:58;;;;;;;3.95;2.15;;;;;;;20.48;52.41;95302.50;4165828;28;20049;-54
2022/07/19 03:47:00;;;;;;;10.10;2.85;;;;;;;20.36;52.75;95306.78;4166704;28;20054;-54
2022/07/19 03:49:02;;;;;;;10.52;3.50;;;;;;;20.12;53.30;95309.03;4160864;28;20485;-54
2022/07/19 03:51:04;;;;;;;9.57;4.25;;;;;;;19.82;54.35;95309.41;4173100;28;20042;-53
2022/07/19 03:53:06;;;;;;;7.65;3.17;;;;;;;19.61;55.03;95314.84;4161039;28;20632;-55
2022/07/19 03:55:08;;;;;;;8.80;3.60;;;;;;;19.46;55.66;95312.31;4170726;28;20179;-54
2022/07/19 03:57:10;;;;;;;4.05;2.30;;;;;;;19.20;56.21;95316.50;4177978;28;20052;-50
2022/07/19 03:59:11;;;;;;;4.95;2.20;;;;;;;19.02;56.56;95314.41;4175512;28;20049;-54
2022/07/19 04:01:13;;;;;;;4.72;2.10;;;;;;;18.83;57.45;95331.03;4164899;28;20452;-52
2022/07/19 04:03:23;;;;;;;6.18;2.50;;;;;;;19.00;56.89;95328.88;4168385;28;20397;-54
2022/07/19 04:05:25;;;;;;;5.72;2.40;;;;;;;19.11;56.51;95327.50;4173167;28;20084;-53
2022/07/19 04:07:27;;;;;;;4.35;1.90;;;;;;;19.19;56.48;95330.81;4161378;28;20076;-51
2022/07/19 04:09:29;;;;;;;4.25;2.42;;;;;;;19.39;56.10;95330.91;4160682;28;20049;-55
2022/07/19 04:11:30;;;;;;;4.13;2.55;;;;;;;19.60;55.47;95337.94;4160632;28;20041;-56
2022/07/19 04:13:35;;;;;;;5.97;2.30;;;;;;;19.79;55.00;95336.41;4168424;28;20478;-52
2022/07/19 04:15:36;;;;;;;6.70;2.85;;;;;;;19.94;54.83;95330.06;4177498;28;20052;-54
2022/07/19 04:17:46;;;;;;;5.25;2.67;;;;;;;20.13;54.21;95331.94;4166584;28;20638;-53
2022/07/19 04:19:48;;;;;;;3.80;2.28;;;;;;;20.27;53.87;95327.47;4172518;28;20056;-56
2022/07/19 04:21:49;;;;;;;4.65;2.10;;;;;;;20.41;53.53;95330.94;4162696;28;20084;-55
2022/07/19 04:23:51;;;;;;;4.88;2.67;;;;;;;20.54;53.21;95333.63;4160421;28;20057;-53
2022/07/19 04:25:54;;;;;;;5.60;2.45;;;;;;;20.62;53.03;95335.25;4161244;28;20156;-53
2022/07/19 04:27:56;;;;;;;6.07;2.42;;;;;;;20.71;52.70;95334.03;4168197;28;20060;-52
2022/07/19 04:29:58;;;;;;;4.93;2.00;;;;;;;20.79;52.52;95333.81;4166548;28;20045;-54
2022/07/19 04:32:00;;;;;;;5.53;2.20;;;;;;;20.89;52.27;95336.06;4160675;28;20451;-53
2022/07/19 04:34:02;;;;;;;5.03;2.63;;;;;;;20.98;52.16;95337.47;4158551;28;20417;-51
2022/07/19 04:36:04;;;;;;;3.88;2.10;;;;;;;21.01;52.14;95330.91;4163400;28;20065;-52
2022/07/19 04:38:05;;;;;;;4.75;2.22;;;;;;;21.04;52.30;95335.84;4161251;28;20111;-52
2022/07/19 04:40:08;;;;;;;9.38;2.35;;;;;;;21.07;52.21;95330.06;4163208;28;20065;-51
2022/07/19 04:42:10;;;;;;;3.87;1.97;;;;;;;21.14;52.10;95335.38;4160033;28;20057;-53
2022/07/19 04:44:12;;;;;;;6.65;2.25;;;;;;;21.19;51.77;95328.41;4162113;28;20120;-52
2022/07/19 04:46:13;;;;;;;3.55;2.15;;;;;;;21.26;51.29;95331.03;4173277;28;20151;-52
2022/07/19 04:48:15;;;;;;;5.03;2.40;;;;;;;21.34;51.39;95332.66;4174422;28;20251;-60
2022/07/19 04:50:17;;;;;;;5.53;2.20;;;;;;;21.37;51.03;95340.25;4176055;28;20087;-54
2022/07/19 04:52:19;;;;;;;4.28;2.78;;;;;;;21.42;51.52;95341.28;4176743;28;20090;-58
2022/07/19 04:54:21;;;;;;;5.47;2.97;;;;;;;21.40;51.14;95345.13;4166525;28;20045;-55
2022/07/19 04:56:22;;;;;;;11.65;2.83;;;;;;;21.25;51.39;95340.91;4161155;28;20057;-58
2022/07/19 04:58:24;;;;;;;6.93;2.20;;;;;;;21.26;51.09;95339.84;4160689;28;20457;-54
2022/07/19 05:00:26;;;;;;;4.85;2.20;;;;;;;21.32;51.25;95340.06;4175816;28;20419;-56
2022/07/19 05:02:27;;;;;;;4.47;2.30;;;;;;;21.44;50.76;95349.03;4176159;28;20040;-57
2022/07/19 05:04:29;;;;;;;4.63;2.22;;;;;;;21.50;50.64;95336.72;4166504;28;20041;-53
2022/07/19 05:06:31;;;;;;;3.60;2.22;;;;;;;21.54;50.84;95344.09;4172620;28;20509;-53
2022/07/19 05:08:33;;;;;;;4.10;2.05;;;;;;;21.59;50.70;95336.25;4175241;28;20462;-54
2022/07/19 05:10:35;;;;;;;4.88;2.10;;;;;;;21.66;50.32;95339.75;4162408;28;20126;-56
2022/07/19 05:12:37;;;;;;;5.88;2.75;;;;;;;21.58;50.41;95344.50;4176737;28;20041;-54
2022/07/19 05:14:39;;;;;;;3.65;2.13;;;;;;;21.59;50.73;95332.78;4176102;28;20056;-56
2022/07/19 05:16:41;;;;;;;4.53;2.05;;;;;;;21.70;50.42;95340.13;4177158;28;20075;-56
2022/07/19 05:18:43;;;;;;;6.13;2.50;;;;;;;21.80;50.11;95337.81;4159544;28;20060;-53
2022/07/19 05:20:45;;;;;;;4.63;2.13;;;;;;;21.73;50.04;95337.03;4170626;28;20046;-53
2022/07/19 05:22:46;;;;;;;4.40;2.40;;;;;;;21.75;50.19;95342.16;4160468;28;20050;-54
2022/07/19 05:24:49;;;;;;;4.83;2.57;;;;;;;21.81;49.89;95343.97;4159130;28;20064;-54
2022/07/19 05:26:51;;;;;;;6.15;2.60;;;;;;;21.92;49.79;95343.31;4160450;28;20484;-54
2022/07/19 05:28:53;;;;;;;5.43;2.20;;;;;;;21.98;49.80;95338.94;4160662;28;20060;-56
2022/07/19 05:30:54;;;;;;;6.75;2.50;;;;;;;22.02;49.45;95340.16;4169242;28;20090;-54
2022/07/19 05:32:56;;;;;;;6.05;2.40;;;;;;;22.13;49.34;95335.97;4165938;28;20671;-53
2022/07/19 05:34:58;;;;;;;5.78;2.33;;;;;;;22.18;49.16;95344.97;4176328;28;20509;-57
2022/07/19 05:37:00;;;;;;;4.82;2.20;;;;;;;22.24;48.67;95343.31;4175987;28;20436;-55
2022/07/19 05:39:02;;;;;;;4.22;2.22;;;;;;;22.29;48.94;95343.50;4160105;28;20100;-56
2022/07/19 05:41:04;;;;;;;3.78;2.55;;;;;;;22.30;48.79;95342.47;4160755;28;20155;-54
2022/07/19 05:43:06;;;;;;;4.53;2.40;;;;;;;22.36;48.42;95346.13;4160579;28;20053;-56
2022/07/19 05:45:08;;;;;;;5.18;2.15;;;;;;;22.42;48.75;95346.06;4159521;28;20224;-56
2022/07/19 05:47:10;;;;;;;6.07;2.78;;;;;;;22.52;48.34;95340.25;4160138;28;20076;-53
2022/07/19 05:49:12;;;;;;;4.63;2.67;;;;;;;22.56;48.03;95344.09;4155949;28;20057;-53
2022/07/19 05:51:14;;;;;;;6.65;2.70;;;;;;;22.53;48.89;95346.41;4173185;28;20045;-54
2022/07/19 05:53:17;;;;;;;7.90;2.90;;;;;;;22.34;48.63;95345.53;4172589;28;20049;-55
2022/07/19 05:55:19;;;;;;;5.75;3.25;;;;;;;22.02;49.20;95348.16;4166250;28;20075;-53
2022/07/19 05:57:20;;;;;;;6.47;3.28;;;;;;;21.78;50.06;95339.88;4165442;28;20049;-54
2022/07/19 05:59:22;;;;;;;9.48;3.03;;;;;;;21.77;50.18;95345.41;4159803;28;20046;-55
2022/07/19 06:01:24;;;;;;;6.22;2.58;;;;;;;21.95;50.13;95336.72;4172993;28;20413;-57
2022/07/19 06:03:26;;;;;;;9.20;3.53;;;;;;;22.14;49.82;95340.31;4157553;28;20336;-55
2022/07/19 06:05:28;;;;;;;7.25;2.85;;;;;;;22.14;49.51;95337.63;4165668;28;20131;-55
2022/07/19 06:07:29;;;;;;;6.63;3.25;;;;;;;21.95;49.72;95332.19;4173922;28;20045;-55
2022/07/19 06:09:31;;;;;;;5.53;2.90;;;;;;;22.12;49.34;95337.03;4163546;28;20049;-54
2022/07/19 06:11:33;;;;;;;9.30;3.25;;;;;;;22.13;49.54;95341.31;4173290;28;20047;-54
2022/07/19 06:13:36;;;;;;;10.23;3.08;;;;;;;22.20;49.18;95342.91;4171157;28;20057;-57
2022/07/19 06:15:37;;;;;;;5.65;2.75;;;;;;;22.33;49.10;95336.69;4164094;28;20535;-56
2022/07/19 06:17:39;;;;;;;7.43;2.80;;;;;;;22.42;49.01;95335.38;4174452;28;20662;-55
2022/07/19 06:19:41;;;;;;;5.05;2.70;;;;;;;22.57;48.51;95337.75;4165452;28;20058;-56
2022/07/19 06:21:43;;;;;;;4.07;2.60;;;;;;;22.26;48.43;95341.25;4159343;28;20095;-54
2022/07/19 06:23:45;;;;;;;4.15;2.65;;;;;;;22.02;49.51;95340.16;4174101;28;20082;-57
2022/07/19 06:25:47;;;;;;;11.25;3.20;;;;;;;21.93;49.83;95336.13;4171797;28;20113;-54
2022/07/19 06:27:48;;;;;;;4.80;2.85;;;;;;;22.07;49.43;95332.34;4165500;28;20065;-53
2022/07/19 06:29:50;;;;;;;8.05;2.85;;;;;;;22.30;49.36;95334.44;4166261;28;20049;-54
2022/07/19 06:31:52;;;;;;;5.53;2.50;;;;;;;22.54;47.88;95332.00;4158424;28;20045;-51
2022/07/19 06:33:53;;;;;;;5.00;2.83;;;;;;;22.68;47.61;95328.19;4158091;28;20133;-54
2022/07/19 06:35:55;;;;;;;10.30;3.13;;;;;;;22.80;47.85;95331.78;4173186;28;20045;-54
2022/07/19 06:37:57;;;;;;;8.52;2.83;;;;;;;22.95;47.14;95323.44;4175234;28;20265;-53
2022/07/19 06:39:59;;;;;;;10.40;3.15;;;;;;;23.11;47.35;95332.75;4175929;28;20087;-56
2022/07/19 06:42:02;;;;;;;9.15;3.17;;;;;;;23.18;46.52;95324.66;4160965;28;20128;-55
2022/07/19 06:44:03;;;;;;;10.10;3.33;;;;;;;22.90;46.98;95328.59;4159342;28;20119;-53
2022/07/19 06:46:05;;;;;;;9.13;2.78;;;;;;;22.79;46.84;95332.81;4157831;28;20050;-55
2022/07/19 06:48:07;;;;;;;3.92;2.65;;;;;;;22.88;46.73;95320.81;4161137;28;20462;-55
2022/07/19 06:50:09;;;;;;;6.13;2.58;;;;;;;23.06;46.85;95322.72;4169393;28;20111;-56
2022/07/19 06:52:31;;;;;;;6.70;2.88;;;;;;;23.28;46.53;95323.09;4159093;28;20556;-53
2022/07/19 06:54:33;;;;;;;7.97;2.70;;;;;;;23.43;46.05;95328.06;4172320;28;20113;-56
2022/07/19 06:56:34;;;;;;;9.35;2.88;;;;;;;23.25;46.30;95323.56;4172320;28;20061;-54
2022/07/19 06:58:36;;;;;;;10.02;2.70;;;;;;;23.25;46.21;95323.56;4158065;28;20057;-54
2022/07/19 07:00:42;;;;;;;9.32;2.75;;;;;;;22.94;46.49;95323.66;4168387;28;20065;-53
2022/07/19 07:02:44;;;;;;;6.05;2.50;;;;;;;22.88;47.26;95322.66;4173643;28;20075;-53
2022/07/19 07:04:46;;;;;;;6.97;2.55;;;;;;;22.80;47.10;95329.13;4159420;28;20049;-57
2022/07/19 07:06:48;;;;;;;8.30;2.72;;;;;;;22.83;47.12;95326.00;4158902;28;20049;-53
2022/07/19 07:08:49;;;;;;;7.05;2.53;;;;;;;23.04;46.44;95322.13;4162834;28;20057;-54
2022/07/19 07:10:51;;;;;;;5.97;2.40;;;;;;;23.22;46.38;95317.81;4169062;28;20126;-57
2022/07/19 07:12:53;;;;;;;4.75;2.47;;;;;;;23.10;45.99;95323.06;4167509;28;20064;-57
2022/07/19 07:14:55;;;;;;;5.30;2.50;;;;;;;22.96;44.98;95319.72;4175751;28;20271;-61
2022/07/19 07:16:56;;;;;;;5.82;2.25;;;;;;;23.15;45.46;95317.91;4177966;28;20440;-56
2022/07/19 07:18:58;;;;;;;6.80;2.60;;;;;;;23.14;45.10;95310.91;4176930;28;20129;-54
2022/07/19 07:21:00;;;;;;;9.73;3.40;;;;;;;23.42;44.49;95312.25;4178010;28;20114;-55
2022/07/19 07:23:02;;;;;;;4.70;2.30;;;;;;;23.51;44.05;95317.06;4168688;28;20098;-54
2022/07/19 07:25:05;;;;;;;7.18;2.20;;;;;;;23.30;43.36;95310.31;4174479;28;20052;-55
2022/07/19 07:27:09;;;;;;;5.75;2.65;;;;;;;23.30;43.48;95313.00;4162544;28;20486;-56
2022/07/19 07:29:12;;;;;;;5.43;3.10;;;;;;;23.30;42.85;95318.34;4160790;28;20544;-54
2022/07/19 07:31:13;;;;;;;4.05;2.35;;;;;;;23.02;44.05;95318.84;4171908;28;20282;-54
2022/07/19 07:33:15;;;;;;;4.60;2.42;;;;;;;23.21;43.60;95309.00;4165665;28;20239;-56
2022/07/19 07:35:17;;;;;;;3.90;2.47;;;;;;;23.45;42.43;95312.63;4161021;28;20080;-55
2022/07/19 07:37:19;;;;;;;4.00;2.55;;;;;;;23.61;41.91;95308.50;4162379;28;20057;-54
2022/07/19 07:39:20;;;;;;;9.77;2.53;;;;;;;23.60;42.26;95308.75;4174552;28;20080;-54
2022/07/19 07:41:22;;;;;;;11.13;3.22;;;;;;;23.85;41.95;95312.09;4162456;28;20518;-53
2022/07/19 07:43:44;;;;;;;5.03;2.40;;;;;;;24.15;41.09;95300.56;4174743;28;20497;-56
2022/07/19 07:45:45;;;;;;;5.75;2.10;;;;;;;24.35;40.25;95299.44;4165068;28;20045;-54
2022/07/19 07:47:48;;;;;;;5.68;2.40;;;;;;;24.56;40.10;95303.47;4162292;28;20577;-54
2022/07/19 07:49:50;;;;;;;4.22;2.55;;;;;;;24.73;39.78;95301.72;4167201;28;20057;-57
2022/07/19 07:51:52;;;;;;;3.55;2.30;;;;;;;24.71;39.51;95295.78;4161631;28;20097;-53
2022/07/19 07:53:54;;;;;;;3.42;2.20;;;;;;;24.89;39.00;95306.41;4161007;28;20288;-52
2022/07/19 07:55:56;;;;;;;4.93;2.78;;;;;;;25.09;38.25;95305.22;4173013;28;20071;-56
2022/07/19 07:58:05;;;;;;;4.80;2.22;;;;;;;25.22;37.88;95296.13;4167865;28;20057;-52
2022/07/19 08:00:11;;;;;;;6.32;3.35;;;;;;;25.35;37.54;95293.19;4172113;28;20086;-56
2022/07/19 08:02:12;;;;;;;10.40;2.83;;;;;;;25.24;37.08;95296.72;4171741;28;20045;-56
2022/07/19 08:04:14;;;;;;;9.52;2.65;;;;;;;25.17;36.89;95304.00;4126856;28;20046;-52
2022/07/19 08:06:17;;;;;;;4.05;2.10;;;;;;;25.18;36.83;95295.75;4165224;28;20326;-58
2022/07/19 08:08:19;;;;;;;7.43;2.50;;;;;;;25.30;37.00;95298.44;4175054;28;20057;-54
2022/07/19 08:10:23;;;;;;;9.77;2.47;;;;;;;25.10;36.25;95298.78;4165383;28;20057;-55
2022/07/19 08:12:25;;;;;;;5.88;2.42;;;;;;;25.29;37.08;95299.50;4166606;28;20099;-55
2022/07/19 08:14:28;;;;;;;5.95;2.88;;;;;;;25.49;36.20;95301.75;4170670;28;20118;-54
2022/07/19 08:16:30;;;;;;;6.05;2.08;;;;;;;25.15;34.17;95293.56;4169419;28;20059;-56
2022/07/19 08:18:32;;;;;;;6.60;2.53;;;;;;;24.79;34.25;95300.78;4174926;28;20077;-57
2022/07/19 08:20:38;;;;;;;4.70;1.88;;;;;;;25.01;33.99;95300.19;4164963;28;20045;-55
2022/07/19 08:22:40;;;;;;;3.75;2.22;;;;;;;24.80;33.62;95299.75;4177344;28;20049;-55
2022/07/19 08:24:43;;;;;;;2.78;1.98;;;;;;;24.87;34.09;95295.09;4170651;28;20144;-56
2022/07/19 08:26:44;;;;;;;6.22;2.30;;;;;;;24.88;34.25;95299.38;4164629;28;20498;-55
2022/07/19 08:28:47;;;;;;;4.57;2.20;;;;;;;25.10;34.70;95293.41;4169525;28;20064;-55
2022/07/19 08:30:49;;;;;;;3.88;1.98;;;;;;;25.12;34.10;95291.31;4172969;28;20067;-54
2022/07/19 08:33:11;;;;;;;5.43;1.90;;;;;;;25.00;33.66;95294.03;4173646;28;20091;-56
2022/07/19 08:35:12;;;;;;;4.00;1.80;;;;;;;25.18;33.42;95295.75;4165175;28;20103;-54
2022/07/19 08:37:14;;;;;;;3.53;1.90;;;;;;;25.04;33.77;95292.50;4169850;28;20060;-53
2022/07/19 08:39:16;;;;;;;3.30;2.13;;;;;;;24.81;32.93;95296.03;4160792;28;20139;-54
2022/07/19 08:41:19;;;;;;;2.80;1.73;;;;;;;24.69;32.75;95289.84;4160988;28;20407;-55
2022/07/19 08:43:22;;;;;;;3.60;2.08;;;;;;;24.41;33.49;95280.59;4170963;28;20461;-53
2022/07/19 08:45:25;;;;;;;4.65;2.30;;;;;;;24.68;33.91;95280.19;4166691;28;20619;-57
2022/07/19 08:47:28;;;;;;;3.92;2.10;;;;;;;25.00;33.66;95290.53;4171533;28;20453;-57
2022/07/19 08:49:30;;;;;;;2.80;1.85;;;;;;;24.99;33.00;95288.91;4161637;28;20466;-56
2022/07/19 08:51:33;;;;;;;7.03;2.30;;;;;;;24.93;33.80;95291.47;4160672;28;20370;-55
2022/07/19 08:53:38;;;;;;;6.68;2.25;;;;;;;25.23;33.35;95285.19;4159831;28;20049;-53
2022/07/19 08:55:39;;;;;;;8.10;2.30;;;;;;;25.52;33.26;95272.59;4160760;28;20053;-56
2022/07/19 08:57:57;;;;;;;8.73;2.60;;;;;;;25.70;31.95;95279.63;4171730;28;20104;-55
2022/07/19 08:59:58;;;;;;;4.07;2.35;;;;;;;25.84;32.37;95284.75;4159457;28;20057;-54
2022/07/19 09:02:00;;;;;;;3.40;2.25;;;;;;;25.89;31.44;95282.97;4160210;28;20497;-54
2022/07/19 09:04:14;;;;;;;2.40;1.77;;;;;;;26.14;31.83;95285.31;4167050;28;20453;-52
2022/07/19 09:06:16;;;;;;;6.28;1.70;;;;;;;26.18;31.44;95288.34;4164541;28;20069;-52
2022/07/19 09:08:18;;;;;;;5.50;2.10;;;;;;;26.31;30.89;95276.47;4174767;28;20065;-52
2022/07/19 09:10:22;;;;;;;2.70;2.08;;;;;;;26.38;32.03;95284.34;4161522;28;20115;-56
2022/07/19 09:12:23;;;;;;;4.03;2.13;;;;;;;26.46;30.78;95279.38;4167100;28;20158;-53
2022/07/19 09:14:34;;;;;;;4.05;2.00;;;;;;;26.66;31.17;95275.41;4176280;28;20049;-55
2022/07/19 09:17:01;;;;;;;7.43;2.00;;;;;;;26.80;30.68;95287.44;4176055;28;20057;-55
2022/07/19 09:19:05;;;;;;;6.18;1.95;;;;;;;26.67;30.33;95280.56;4158012;28;20045;-57
2022/07/19 09:21:07;;;;;;;8.05;2.67;;;;;;;26.78;30.72;95284.22;4159009;28;20115;-53
2022/07/19 09:23:09;;;;;;;3.08;1.92;;;;;;;26.90;30.47;95273.34;4161682;28;20057;-55
2022/07/19 09:25:11;;;;;;;6.18;1.92;;;;;;;26.99;30.61;95276.41;4173901;28;20106;-54
2022/07/19 09:27:15;;;;;;;3.92;2.15;;;;;;;27.13;30.40;95281.19;4173789;28;20049;-53
2022/07/19 09:29:17;;;;;;;4.57;1.95;;;;;;;27.18;30.08;95267.00;4165480;28;20397;-55
2022/07/19 09:31:19;;;;;;;3.90;2.10;;;;;;;27.34;29.69;95271.53;4172536;28;20091;-53
2022/07/19 09:33:29;;;;;;;3.33;2.20;;;;;;;27.50;30.18;95263.66;4174211;28;20137;-53
2022/07/19 09:35:56;;;;;;;6.05;2.47;;;;;;;27.62;30.04;95272.41;4173270;28;20057;-53
2022/07/19 09:38:15;;;;;;;3.80;1.90;;;;;;;27.58;29.32;95268.59;4164168;28;20053;-56